Castor Plunge, Louisiana
Current Conditions -  °F | °C
As of 11:02 PM on Sunday 21 Dec 2014 (Local Time) from KAEX Reporting Station
Haze Haze  
Wind Chill: 47°   Ceiling: 200
Heat Index: 49°   Visibility: 1mi
Dew Point: 49°   Wind: 5mph
Humidity: 100%   Direction: 190°S
Pressure: 29.93"   Gusts: NA
Location:  31.1516°N, 92.535°W
Report Text: KAEX 220502Z 19004KT 1SM BR OVC002 09/09 A2993 RMK AO2 T00940094
Loading
Personal Weather Stations






























Interactive Weather Map New forecast layout! Learn more

10-Day Weather Forecast

Advertisements
Track Severe Weather on mobile